Terminal Aerodrome Forecast
Issued by NWS

Home | Current Version | Previous Version | Text Only | Print | Product List | Glossary On
Versions: 1 2 3 4 5 6 7 8 9 10 11 12 13 14 15 16 17 18
000
FTUS45 KBOU 222341
TAFAPA
TAF
KAPA 222341Z 2300/2324 32008KT P6SM VCSH SCT100 BKN220
     FM230200 13006KT P6SM SCT080 BKN220
     FM230500 19007KT P6SM FEW100 SCT220
     FM231700 15007KT P6SM SCT220
     FM231900 04007KT P6SM FEW120 SCT220=

USA.gov is the U.S. government's official web portal to all federal, state and local government web resources and services.